createdAt,value
2023-02-11T00:00:31.315Z,11.30
2023-02-11T00:01:36.012Z,11.05
2023-02-11T00:02:38.559Z,11.30
2023-02-11T00:03:40.887Z,11.13
2023-02-11T00:04:43.322Z,9.68
2023-02-11T00:05:45.653Z,10.93
2023-02-11T00:06:47.947Z,11.18
2023-02-11T00:07:50.298Z,11.18
2023-02-11T00:08:52.657Z,11.35
2023-02-11T00:09:55.037Z,10.95
2023-02-11T00:10:58.731Z,10.18
2023-02-11T00:12:01.148Z,10.50
2023-02-11T00:13:03.574Z,10.13
2023-02-11T00:14:08.206Z,10.48
2023-02-11T00:15:10.793Z,10.55
2023-02-11T00:16:19.123Z,9.68
2023-02-11T00:17:21.801Z,10.00
2023-02-11T00:18:24.525Z,10.57
2023-02-11T00:19:26.910Z,10.73
2023-02-11T00:20:29.228Z,9.55
2023-02-11T00:21:31.689Z,10.25
2023-02-11T00:22:34.079Z,10.82
2023-02-11T00:23:37.398Z,10.25
2023-02-11T00:24:39.687Z,9.90
2023-02-11T00:25:43.651Z,9.68
2023-02-11T00:26:46.009Z,9.55
2023-02-11T00:27:48.430Z,9.23
2023-02-11T00:28:52.686Z,9.55
2023-02-11T00:29:55.146Z,9.27
2023-02-11T00:30:58.597Z,9.73
2023-02-11T00:32:05.178Z,9.10
2023-02-11T00:33:07.618Z,9.07
2023-02-11T00:34:09.972Z,9.82
2023-02-11T00:35:12.297Z,8.90
2023-02-11T00:36:18.445Z,9.48
2023-02-11T00:37:22.972Z,9.40
2023-02-11T00:38:25.397Z,8.85
2023-02-11T00:39:27.832Z,10.00
2023-02-11T00:40:30.178Z,9.38
2023-02-11T00:41:33.528Z,9.43
2023-02-11T00:42:36.012Z,9.02
2023-02-11T00:43:38.550Z,8.38
2023-02-11T00:44:41.092Z,8.55
2023-02-11T00:45:43.411Z,9.23
2023-02-11T00:46:45.851Z,9.25
2023-02-11T00:47:48.368Z,8.80
2023-02-11T00:48:57.535Z,8.77
2023-02-11T00:50:00.932Z,9.52
2023-02-11T00:51:04.218Z,9.25
2023-02-11T00:52:06.798Z,9.27
2023-02-11T00:53:10.317Z,9.93
2023-02-11T00:54:13.173Z,8.88
2023-02-11T00:55:16.044Z,9.15
2023-02-11T00:56:18.399Z,9.13
2023-02-11T00:57:20.752Z,9.23
2023-02-11T00:58:25.133Z,9.30
2023-02-11T00:59:27.538Z,8.98
2023-02-11T01:00:30.037Z,8.75
2023-02-11T01:01:32.746Z,8.93
2023-02-11T01:02:35.205Z,9.73
2023-02-11T01:03:39.500Z,8.77
2023-02-11T01:04:41.876Z,9.23
2023-02-11T01:05:44.269Z,7.68
2023-02-11T01:06:46.769Z,8.80
2023-02-11T01:07:49.105Z,9.48
2023-02-11T01:08:51.855Z,7.80
2023-02-11T01:09:54.602Z,8.30
2023-02-11T01:11:12.919Z,8.38
2023-02-11T01:12:15.249Z,8.70
2023-02-11T01:13:17.660Z,8.85
2023-02-11T01:14:20.026Z,8.52
2023-02-11T01:15:22.923Z,8.73
2023-02-11T01:16:25.276Z,8.88
2023-02-11T01:17:28.951Z,9.18
2023-02-11T01:18:31.588Z,8.02
2023-02-11T01:19:33.923Z,7.95
2023-02-11T01:20:36.417Z,8.07
2023-02-11T01:21:38.848Z,9.13
2023-02-11T01:22:41.272Z,8.80
2023-02-11T01:23:43.721Z,8.55
2023-02-11T01:24:47.438Z,8.75
2023-02-11T01:25:50.322Z,8.38
2023-02-11T01:26:52.793Z,8.30
2023-02-11T01:27:55.200Z,7.40
2023-02-11T01:29:00.040Z,8.60
2023-02-11T01:30:05.090Z,9.02
2023-02-11T01:31:07.568Z,8.15
2023-02-11T01:32:10.053Z,8.45
2023-02-11T01:33:12.879Z,8.20
2023-02-11T01:34:15.615Z,7.88
2023-02-11T01:35:18.023Z,7.88
2023-02-11T01:36:20.396Z,9.10
2023-02-11T01:37:22.670Z,9.48
2023-02-11T01:38:26.538Z,10.00
2023-02-11T01:39:28.952Z,9.30
2023-02-11T01:40:31.302Z,9.82
2023-02-11T01:41:33.619Z,9.68
2023-02-11T01:42:36.307Z,8.95
2023-02-11T01:43:43.277Z,9.30
2023-02-11T01:44:46.006Z,9.38
2023-02-11T01:45:48.651Z,9.57
2023-02-11T01:46:51.239Z,9.50
2023-02-11T01:47:54.948Z,10.10
2023-02-11T01:49:05.986Z,9.23
2023-02-11T01:50:08.488Z,9.88
2023-02-11T01:51:19.850Z,9.15
2023-02-11T01:53:51.043Z,8.55
2023-02-11T01:55:18.924Z,9.40
2023-02-11T01:56:41.674Z,8.88
2023-02-11T01:57:48.760Z,9.52
2023-02-11T01:58:55.559Z,9.88
2023-02-11T02:00:22.495Z,9.63
2023-02-11T02:01:27.708Z,10.05
2023-02-11T02:02:58.196Z,9.98
2023-02-11T02:04:02.994Z,10.65
2023-02-11T02:05:17.314Z,9.90
2023-02-11T02:06:26.704Z,8.93
2023-02-11T02:07:42.651Z,9.18
2023-02-11T02:08:50.205Z,9.52
2023-02-11T02:10:01.398Z,8.23
2023-02-11T02:11:05.333Z,10.18
2023-02-11T02:12:07.748Z,10.00
2023-02-11T02:13:11.309Z,9.15
2023-02-11T02:14:13.806Z,9.68
2023-02-11T02:15:25.301Z,10.07
2023-02-11T02:16:37.690Z,8.77
2023-02-11T02:17:53.906Z,9.10
2023-02-11T02:19:18.190Z,9.23
2023-02-11T02:20:49.565Z,8.70
2023-02-11T02:22:10.498Z,8.63
2023-02-11T02:23:25.384Z,8.85
2023-02-11T02:24:39.789Z,9.15
2023-02-11T02:25:57.628Z,9.57
2023-02-11T02:26:59.893Z,8.82
2023-02-11T02:28:12.591Z,8.45
2023-02-11T02:29:42.386Z,8.85
2023-02-11T02:31:11.748Z,8.65
2023-02-11T02:32:32.752Z,9.27
2023-02-11T02:34:02.106Z,8.02
2023-02-11T02:35:26.705Z,8.35
2023-02-11T02:36:35.740Z,8.13
2023-02-11T02:38:05.223Z,8.35
2023-02-11T02:39:26.543Z,8.15
2023-02-11T02:40:42.834Z,8.93
2023-02-11T02:41:47.364Z,8.65
2023-02-11T02:42:50.944Z,7.60
2023-02-11T02:43:54.376Z,9.35
2023-02-11T02:44:56.886Z,8.77
2023-02-11T02:46:13.906Z,8.50
2023-02-11T02:47:16.473Z,8.90
2023-02-11T02:48:29.348Z,9.18
2023-02-11T02:49:31.694Z,8.90
2023-02-11T02:50:37.280Z,9.35
2023-02-11T02:51:56.438Z,8.48
2023-02-11T02:52:58.696Z,8.13
2023-02-11T02:54:25.893Z,8.65
2023-02-11T02:55:44.478Z,8.13
2023-02-11T02:56:52.887Z,8.63
2023-02-11T02:58:30.573Z,8.98
2023-02-11T03:00:14.852Z,8.50
2023-02-11T03:01:30.046Z,8.02
2023-02-11T03:02:38.435Z,8.35
2023-02-11T03:03:55.196Z,7.53
2023-02-11T03:05:28.650Z,7.78
2023-02-11T03:06:46.601Z,8.80
2023-02-11T03:07:56.838Z,8.25
2023-02-11T03:09:22.475Z,8.68
2023-02-11T03:10:36.197Z,8.43
2023-02-11T03:11:39.862Z,8.30
2023-02-11T03:12:44.308Z,7.32
2023-02-11T03:13:48.407Z,8.02
2023-02-11T03:14:52.021Z,8.32
2023-02-11T03:15:56.434Z,7.68
2023-02-11T03:17:01.248Z,7.05
2023-02-11T03:18:05.185Z,8.02
2023-02-11T03:19:15.438Z,6.95
2023-02-11T03:20:20.261Z,7.63
2023-02-11T03:21:24.179Z,7.47
2023-02-11T03:22:40.479Z,7.97
2023-02-11T03:23:51.052Z,7.20
2023-02-11T03:24:55.022Z,7.00
2023-02-11T03:26:25.863Z,6.85
2023-02-11T03:27:47.455Z,7.00
2023-02-11T03:30:12.592Z,7.40
2023-02-11T03:31:21.757Z,6.78
2023-02-11T03:32:38.944Z,8.32
2023-02-11T03:33:56.915Z,8.02
2023-02-11T03:35:06.516Z,6.75
2023-02-11T03:36:17.559Z,6.88
2023-02-11T03:37:40.896Z,6.78
2023-02-11T03:38:51.846Z,6.88
2023-02-11T03:39:59.847Z,6.57
2023-02-11T03:41:05.732Z,6.63
2023-02-11T03:42:10.717Z,6.28
2023-02-11T03:43:20.177Z,6.47
2023-02-11T03:44:26.686Z,7.65
2023-02-11T03:45:30.121Z,33.40
2023-02-11T03:46:35.847Z,52.65
2023-02-11T03:47:41.762Z,51.55
2023-02-11T03:48:52.281Z,43.97
2023-02-11T03:49:57.452Z,38.83
2023-02-11T03:51:02.969Z,34.20
2023-02-11T03:52:07.742Z,30.58
2023-02-11T03:53:11.788Z,28.48
2023-02-11T03:54:18.312Z,27.02
2023-02-11T03:55:23.260Z,24.23
2023-02-11T03:56:29.962Z,23.85
2023-02-11T03:57:34.189Z,21.75
2023-02-11T03:58:36.514Z,19.38
2023-02-11T03:59:56.999Z,19.05
2023-02-11T04:00:59.408Z,16.95
2023-02-11T04:02:01.805Z,16.83
2023-02-11T04:03:04.923Z,15.02
2023-02-11T04:04:07.320Z,13.43
2023-02-11T04:05:11.416Z,13.68
2023-02-11T04:06:13.699Z,12.93
2023-02-11T04:07:16.238Z,12.63
2023-02-11T04:08:18.567Z,11.32
2023-02-11T04:09:20.883Z,10.88
2023-02-11T04:10:23.253Z,10.95
2023-02-11T04:11:25.731Z,26.35
2023-02-11T04:12:28.056Z,17.80
2023-02-11T04:13:30.460Z,26.55
2023-02-11T04:14:32.855Z,31.15
2023-02-11T04:15:35.164Z,17.27
2023-02-11T04:16:37.668Z,16.48
2023-02-11T04:17:40.231Z,16.98
2023-02-11T04:18:42.631Z,16.30
2023-02-11T04:19:45.010Z,15.40
2023-02-11T04:20:48.063Z,14.88
2023-02-11T04:21:50.430Z,14.55
2023-02-11T04:22:52.718Z,13.77
2023-02-11T04:23:55.047Z,12.57
2023-02-11T04:24:57.427Z,26.42
2023-02-11T04:25:59.746Z,32.60
2023-02-11T04:27:02.395Z,31.05
2023-02-11T04:28:04.721Z,29.20
2023-02-11T04:29:07.119Z,26.30
2023-02-11T04:30:10.047Z,24.45
2023-02-11T04:31:12.886Z,23.52
2023-02-11T04:32:15.314Z,21.52
2023-02-11T04:33:17.838Z,20.48
2023-02-11T04:34:21.171Z,20.45
2023-02-11T04:35:23.505Z,19.05
2023-02-11T04:36:25.922Z,17.33
2023-02-11T04:37:28.454Z,15.57
2023-02-11T04:38:30.809Z,13.07
2023-02-11T04:39:33.126Z,13.40
2023-02-11T04:40:35.428Z,12.98
2023-02-11T04:41:37.860Z,13.40
2023-02-11T04:42:40.289Z,13.40
2023-02-11T04:43:42.621Z,11.68
2023-02-11T04:44:45.002Z,12.02
2023-02-11T04:45:47.363Z,10.68
2023-02-11T04:46:49.702Z,11.20
2023-02-11T04:47:52.082Z,11.38
2023-02-11T04:48:54.445Z,15.77
2023-02-11T04:49:56.827Z,29.50
2023-02-11T04:50:59.176Z,21.80
2023-02-11T04:52:01.564Z,20.95
2023-02-11T04:53:03.899Z,19.38
2023-02-11T04:54:06.238Z,18.25
2023-02-11T04:55:08.576Z,15.48
2023-02-11T04:56:10.895Z,14.23
2023-02-11T04:57:13.314Z,15.50
2023-02-11T04:58:15.708Z,14.23
2023-02-11T04:59:18.054Z,15.15
2023-02-11T05:00:20.586Z,13.40
2023-02-11T05:01:23.333Z,14.45
2023-02-11T05:02:25.760Z,13.82
2023-02-11T05:03:28.096Z,14.57
2023-02-11T05:04:30.508Z,14.73
2023-02-11T05:05:32.908Z,14.02
2023-02-11T05:06:35.256Z,13.00
2023-02-11T05:07:37.599Z,13.45
2023-02-11T05:08:39.928Z,13.48
2023-02-11T05:09:42.356Z,14.20
2023-02-11T05:10:47.953Z,13.32
2023-02-11T05:11:50.377Z,12.82
2023-02-11T05:12:55.621Z,12.57
2023-02-11T05:13:58.295Z,12.60
2023-02-11T05:15:01.153Z,12.63
2023-02-11T05:16:03.764Z,13.00
2023-02-11T05:17:06.172Z,14.05
2023-02-11T05:18:08.638Z,13.02
2023-02-11T05:19:11.141Z,14.10
2023-02-11T05:20:13.444Z,12.48
2023-02-11T05:21:18.783Z,12.25
2023-02-11T05:22:22.126Z,11.70
2023-02-11T05:23:24.453Z,11.45
2023-02-11T05:24:26.809Z,12.23
2023-02-11T05:25:29.136Z,11.70
2023-02-11T05:26:32.213Z,10.82
2023-02-11T05:27:34.668Z,10.93
2023-02-11T05:28:37.460Z,11.88
2023-02-11T05:29:39.967Z,11.85
2023-02-11T05:30:42.451Z,11.23
2023-02-11T05:31:44.864Z,11.05
2023-02-11T05:32:47.188Z,11.80
2023-02-11T05:33:49.510Z,10.43
2023-02-11T05:34:51.896Z,9.98
2023-02-11T05:36:03.706Z,13.10
2023-02-11T05:37:06.503Z,11.30
2023-02-11T05:38:08.866Z,11.07
2023-02-11T05:39:11.288Z,11.48
2023-02-11T05:40:13.944Z,11.27
2023-02-11T05:41:16.308Z,12.82
2023-02-11T05:42:18.658Z,11.48
2023-02-11T05:43:21.326Z,12.02
2023-02-11T05:44:23.685Z,12.00
2023-02-11T05:45:26.139Z,11.48
2023-02-11T05:46:28.706Z,10.63
2023-02-11T05:47:31.204Z,11.60
2023-02-11T05:48:33.935Z,11.52
2023-02-11T05:49:36.299Z,12.30
2023-02-11T05:50:38.776Z,10.80
2023-02-11T05:51:41.095Z,10.90
2023-02-11T05:52:43.430Z,11.43
2023-02-11T05:53:45.930Z,10.90
2023-02-11T05:54:48.680Z,11.60
2023-02-11T05:55:51.476Z,11.65
2023-02-11T05:56:53.996Z,11.27
2023-02-11T05:57:56.349Z,10.93
2023-02-11T05:58:59.828Z,10.45
2023-02-11T06:00:04.185Z,10.18
2023-02-11T06:01:14.896Z,10.10
2023-02-11T06:02:17.239Z,10.80
2023-02-11T06:03:19.809Z,10.82
2023-02-11T06:04:22.162Z,10.13
2023-02-11T06:05:24.486Z,24.70
2023-02-11T06:06:26.881Z,13.63
2023-02-11T06:07:29.465Z,11.50
2023-02-11T06:08:31.804Z,14.75
2023-02-11T06:09:34.150Z,14.02
2023-02-11T06:10:36.510Z,14.88
2023-02-11T06:11:38.897Z,13.25
2023-02-11T06:12:41.217Z,11.65
2023-02-11T06:13:43.877Z,11.68
2023-02-11T06:14:46.270Z,11.82
2023-02-11T06:15:59.361Z,11.95
2023-02-11T06:17:01.922Z,11.68
2023-02-11T06:18:04.552Z,11.95
2023-02-11T06:19:06.878Z,11.63
2023-02-11T06:20:10.493Z,11.68
2023-02-11T06:21:12.976Z,12.02
2023-02-11T06:22:15.617Z,11.52
2023-02-11T06:23:17.984Z,11.95
2023-02-11T06:24:33.119Z,12.48
2023-02-11T06:25:42.679Z,11.50
2023-02-11T06:26:45.057Z,12.00
2023-02-11T06:27:47.406Z,12.02
2023-02-11T06:28:49.990Z,11.70
2023-02-11T06:29:55.258Z,11.25
2023-02-11T06:30:58.611Z,11.45
2023-02-11T06:32:01.166Z,11.27
2023-02-11T06:33:03.779Z,12.20
2023-02-11T06:34:06.260Z,19.75
2023-02-11T06:35:11.466Z,18.38
2023-02-11T06:36:17.671Z,15.57
2023-02-11T06:37:20.067Z,16.20
2023-02-11T06:38:22.448Z,13.88
2023-02-11T06:39:24.812Z,13.65
2023-02-11T06:40:27.644Z,13.18
2023-02-11T06:41:30.046Z,13.00
2023-02-11T06:42:32.695Z,13.75
2023-02-11T06:43:34.982Z,12.73
2023-02-11T06:44:37.401Z,13.27
2023-02-11T06:45:39.717Z,13.60
2023-02-11T06:46:42.113Z,12.80
2023-02-11T06:47:44.590Z,12.35
2023-02-11T06:48:47.046Z,12.95
2023-02-11T06:49:49.392Z,13.20
2023-02-11T06:50:51.675Z,12.18
2023-02-11T06:51:54.028Z,12.80
2023-02-11T06:52:56.361Z,12.30
2023-02-11T06:53:58.651Z,13.07
2023-02-11T06:55:01.056Z,12.50
2023-02-11T06:56:05.181Z,12.05
2023-02-11T06:57:07.546Z,12.18
2023-02-11T06:58:09.926Z,11.38
2023-02-11T06:59:17.015Z,12.02
2023-02-11T07:00:19.626Z,11.95
2023-02-11T07:01:22.990Z,12.07
2023-02-11T07:02:25.499Z,11.90
2023-02-11T07:03:28.002Z,11.82
2023-02-11T07:04:30.380Z,12.00
2023-02-11T07:05:34.167Z,11.98
2023-02-11T07:06:37.505Z,11.18
2023-02-11T07:07:40.047Z,11.30
2023-02-11T07:08:43.018Z,11.02
2023-02-11T07:09:45.340Z,10.15
2023-02-11T07:10:47.746Z,10.85
2023-02-11T07:11:50.086Z,10.57
2023-02-11T07:12:53.041Z,10.77
2023-02-11T07:14:00.028Z,12.18
2023-02-11T07:15:02.652Z,10.93
2023-02-11T07:16:08.474Z,11.50
2023-02-11T07:17:10.807Z,11.15
2023-02-11T07:18:14.732Z,10.15
2023-02-11T07:19:17.210Z,10.82
2023-02-11T07:20:19.855Z,27.95
2023-02-11T07:21:24.170Z,16.92
2023-02-11T07:22:26.540Z,15.68
2023-02-11T07:23:28.892Z,16.10
2023-02-11T07:24:31.258Z,12.93
2023-02-11T07:25:36.068Z,13.20
2023-02-11T07:26:39.009Z,11.93
2023-02-11T07:27:41.492Z,11.98
2023-02-11T07:28:44.877Z,12.35
2023-02-11T07:29:48.658Z,13.18
2023-02-11T07:30:51.101Z,12.88
2023-02-11T07:31:53.539Z,14.13
2023-02-11T07:32:56.910Z,12.60
2023-02-11T07:34:01.667Z,13.30
2023-02-11T07:35:04.381Z,12.23
2023-02-11T07:36:08.534Z,12.73
2023-02-11T07:37:11.000Z,11.90
2023-02-11T07:38:13.326Z,13.43
2023-02-11T07:39:16.088Z,13.18
2023-02-11T07:40:18.550Z,11.48
2023-02-11T07:41:22.952Z,11.15
2023-02-11T07:42:25.340Z,11.30
2023-02-11T07:43:28.584Z,11.45
2023-02-11T07:44:33.097Z,10.35
2023-02-11T07:45:38.911Z,11.50
2023-02-11T07:46:45.292Z,11.50
2023-02-11T07:47:48.044Z,12.05
2023-02-11T07:48:50.869Z,12.38
2023-02-11T07:49:56.193Z,12.35
2023-02-11T07:51:10.021Z,11.40
2023-02-11T07:52:12.365Z,11.80
2023-02-11T07:53:14.774Z,11.07
2023-02-11T07:54:17.713Z,11.85
2023-02-11T07:55:20.105Z,10.65
2023-02-11T07:56:23.395Z,10.68
2023-02-11T07:57:25.949Z,11.30
2023-02-11T07:58:28.241Z,10.75
2023-02-11T07:59:30.559Z,10.40
2023-02-11T08:00:32.996Z,10.98
2023-02-11T08:01:36.660Z,11.20
2023-02-11T08:02:38.987Z,9.88
2023-02-11T08:03:42.728Z,10.57
2023-02-11T08:04:48.060Z,10.35
2023-02-11T08:05:50.672Z,10.73
2023-02-11T08:06:58.580Z,10.90
2023-02-11T08:08:01.345Z,11.57
2023-02-11T08:09:06.258Z,10.88
2023-02-11T08:10:08.795Z,10.60
2023-02-11T08:11:14.681Z,9.70
2023-02-11T08:12:17.044Z,10.43
2023-02-11T08:13:19.412Z,9.80
2023-02-11T08:14:21.866Z,11.10
2023-02-11T08:15:24.189Z,10.20
2023-02-11T08:16:32.409Z,10.55
2023-02-11T08:17:36.522Z,9.70
2023-02-11T08:18:38.947Z,10.85
2023-02-11T08:19:41.312Z,10.02
2023-02-11T08:20:43.686Z,10.57
2023-02-11T08:21:46.984Z,9.98
2023-02-11T08:22:49.283Z,10.35
2023-02-11T08:23:52.173Z,9.57
2023-02-11T08:24:54.546Z,10.23
2023-02-11T08:26:02.041Z,9.68
2023-02-11T08:27:04.492Z,10.57
2023-02-11T08:28:06.949Z,8.93
2023-02-11T08:29:12.294Z,9.50
2023-02-11T08:30:14.691Z,10.25
2023-02-11T08:31:29.427Z,9.93
2023-02-11T08:32:34.147Z,13.15
2023-02-11T08:33:36.749Z,13.30
2023-02-11T08:34:39.545Z,14.02
2023-02-11T08:35:41.929Z,12.65
2023-02-11T08:36:44.930Z,10.68
2023-02-11T08:37:47.250Z,11.07
2023-02-11T08:38:50.007Z,13.20
2023-02-11T08:39:52.423Z,11.32
2023-02-11T08:40:54.804Z,9.52
2023-02-11T08:41:57.138Z,10.90
2023-02-11T08:42:59.408Z,11.02
2023-02-11T08:44:02.091Z,11.32
2023-02-11T08:45:05.092Z,10.73
2023-02-11T08:46:08.929Z,10.95
2023-02-11T08:47:11.286Z,11.50
2023-02-11T08:48:13.556Z,10.40
2023-02-11T08:49:16.448Z,13.90
2023-02-11T08:50:18.922Z,34.05
2023-02-11T08:51:23.930Z,24.60
2023-02-11T08:52:26.300Z,25.20
2023-02-11T08:53:28.688Z,26.90
2023-02-11T08:54:31.832Z,21.73
2023-02-11T08:55:34.443Z,20.13
2023-02-11T08:56:38.385Z,16.08
2023-02-11T08:57:40.737Z,14.02
2023-02-11T08:58:43.457Z,13.35
2023-02-11T08:59:45.901Z,13.43
2023-02-11T09:00:49.951Z,13.10
2023-02-11T09:01:52.600Z,11.88
2023-02-11T09:02:55.333Z,12.45
2023-02-11T09:03:58.547Z,12.40
2023-02-11T09:05:00.976Z,11.48
2023-02-11T09:06:06.527Z,11.52
2023-02-11T09:07:09.085Z,12.13
2023-02-11T09:08:12.355Z,11.50
2023-02-11T09:09:16.099Z,11.93
2023-02-11T09:10:18.500Z,12.13
2023-02-11T09:11:25.364Z,11.60
2023-02-11T09:12:27.832Z,12.02
2023-02-11T09:13:30.827Z,11.88
2023-02-11T09:14:33.277Z,11.48
2023-02-11T09:15:35.712Z,11.23
2023-02-11T09:16:38.157Z,10.63
2023-02-11T09:17:40.608Z,10.13
2023-02-11T09:18:44.306Z,13.57
2023-02-11T09:19:46.706Z,18.27
2023-02-11T09:20:49.296Z,15.38
2023-02-11T09:21:51.807Z,13.77
2023-02-11T09:22:57.092Z,14.73
2023-02-11T09:23:59.445Z,14.77
2023-02-11T09:25:02.320Z,14.77
2023-02-11T09:26:09.562Z,16.27
2023-02-11T09:27:12.142Z,14.85
2023-02-11T09:28:14.582Z,12.73
2023-02-11T09:29:16.935Z,12.15
2023-02-11T09:30:19.504Z,11.70
2023-02-11T09:31:24.210Z,11.63
2023-02-11T09:32:26.794Z,12.02
2023-02-11T09:33:29.140Z,10.95
2023-02-11T09:34:31.525Z,10.88
2023-02-11T09:35:34.985Z,11.10
2023-02-11T09:36:40.175Z,11.75
2023-02-11T09:37:42.689Z,10.98
2023-02-11T09:38:45.396Z,11.07
2023-02-11T09:39:47.758Z,10.25
2023-02-11T09:40:50.442Z,10.80
2023-02-11T09:42:02.122Z,10.80
2023-02-11T09:43:12.016Z,10.88
2023-02-11T09:44:23.075Z,11.38
2023-02-11T09:45:28.444Z,10.85
2023-02-11T09:46:35.323Z,10.40
2023-02-11T09:48:05.887Z,11.27
2023-02-11T09:49:18.397Z,10.65
2023-02-11T09:50:39.499Z,10.70
2023-02-11T09:51:47.284Z,10.50
2023-02-11T09:53:04.828Z,11.57
2023-02-11T09:54:20.964Z,10.57
2023-02-11T09:55:30.171Z,10.02
2023-02-11T09:56:32.529Z,10.82
2023-02-11T09:57:36.819Z,11.10
2023-02-11T09:58:41.843Z,9.88
2023-02-11T09:59:44.346Z,10.40
2023-02-11T10:01:26.621Z,11.10
2023-02-11T10:03:06.400Z,9.27
2023-02-11T10:04:56.673Z,9.82
2023-02-11T10:06:39.373Z,11.77
2023-02-11T10:08:01.208Z,20.20
2023-02-11T10:09:30.475Z,13.25
2023-02-11T10:10:52.842Z,10.95
2023-02-11T10:11:55.449Z,10.30
2023-02-11T10:13:03.889Z,9.70
2023-02-11T10:14:41.586Z,10.63
2023-02-11T10:16:13.756Z,9.77
2023-02-11T10:17:32.808Z,10.38
2023-02-11T10:18:51.826Z,10.75
2023-02-11T10:20:25.497Z,10.93
2023-02-11T10:21:51.486Z,10.70
2023-02-11T10:22:57.639Z,11.05
2023-02-11T10:24:03.458Z,10.55
2023-02-11T10:25:24.632Z,11.60
2023-02-11T10:26:31.006Z,11.25
2023-02-11T10:27:36.120Z,11.02
2023-02-11T10:28:40.239Z,10.95
2023-02-11T10:29:49.655Z,10.57
2023-02-11T10:31:02.894Z,11.05
2023-02-11T10:32:41.720Z,10.05
2023-02-11T10:33:52.507Z,10.00
2023-02-11T10:35:01.597Z,11.32
2023-02-11T10:36:04.826Z,9.18
2023-02-11T10:37:07.725Z,10.25
2023-02-11T10:38:11.701Z,11.07
2023-02-11T10:39:24.030Z,10.80
2023-02-11T10:40:29.641Z,10.25
2023-02-11T10:41:36.653Z,10.50
2023-02-11T10:42:40.343Z,10.82
2023-02-11T10:43:43.165Z,11.52
2023-02-11T10:45:17.698Z,10.13
2023-02-11T10:46:26.756Z,11.38
2023-02-11T10:47:36.942Z,11.25
2023-02-11T10:48:43.423Z,11.93
2023-02-11T10:49:48.886Z,12.85
2023-02-11T10:50:56.943Z,11.52
2023-02-11T10:52:16.107Z,13.25
2023-02-11T10:53:21.081Z,11.35
2023-02-11T10:54:24.333Z,12.23
2023-02-11T10:55:28.628Z,12.07
2023-02-11T10:56:40.934Z,11.80
2023-02-11T10:58:04.490Z,11.52
2023-02-11T10:59:24.028Z,14.73
2023-02-11T11:00:46.681Z,13.45
2023-02-11T11:01:52.532Z,12.38
2023-02-11T11:02:58.278Z,12.55
2023-02-11T11:04:00.762Z,12.88
2023-02-11T11:05:37.175Z,13.43
2023-02-11T11:06:39.620Z,13.40
2023-02-11T11:08:10.183Z,13.80
2023-02-11T11:09:31.104Z,13.40
2023-02-11T11:11:04.111Z,14.07
2023-02-11T11:12:06.464Z,12.45
2023-02-11T11:13:33.080Z,13.15
2023-02-11T11:14:35.410Z,12.73
2023-02-11T11:15:37.843Z,12.68
2023-02-11T11:16:54.362Z,13.88
2023-02-11T11:18:23.621Z,12.85
2023-02-11T11:19:26.161Z,13.45
2023-02-11T11:20:32.216Z,13.13
2023-02-11T11:21:40.762Z,12.68
2023-02-11T11:22:43.840Z,12.52
2023-02-11T11:24:03.589Z,12.73
2023-02-11T11:25:06.519Z,12.95
2023-02-11T11:26:14.979Z,11.93
2023-02-11T11:27:21.042Z,12.43
2023-02-11T11:28:25.794Z,12.45
2023-02-11T11:29:34.080Z,12.65
2023-02-11T11:30:42.850Z,12.52
2023-02-11T11:31:53.689Z,12.05
2023-02-11T11:32:56.537Z,11.82
2023-02-11T11:34:03.576Z,12.45
2023-02-11T11:35:21.030Z,11.10
2023-02-11T11:36:36.636Z,12.70
2023-02-11T11:37:39.209Z,13.90
2023-02-11T11:38:50.330Z,17.75
2023-02-11T11:40:15.754Z,20.20
2023-02-11T11:41:30.650Z,19.90
2023-02-11T11:42:35.149Z,15.63
2023-02-11T11:43:37.696Z,14.20
2023-02-11T11:44:40.013Z,14.02
2023-02-11T11:45:59.557Z,14.85
2023-02-11T11:47:13.556Z,15.70
2023-02-11T11:48:26.541Z,15.07
2023-02-11T11:49:33.362Z,15.18
2023-02-11T11:50:53.361Z,16.00
2023-02-11T11:52:40.859Z,15.15
2023-02-11T11:53:46.345Z,15.18
2023-02-11T11:55:00.151Z,13.95
2023-02-11T11:56:09.130Z,14.90
2023-02-11T11:57:22.145Z,15.75
2023-02-11T11:58:24.512Z,14.93
2023-02-11T11:59:27.791Z,14.88
2023-02-11T12:00:35.162Z,14.75
2023-02-11T12:01:56.564Z,15.48
2023-02-11T12:03:27.702Z,16.85
2023-02-11T12:05:08.352Z,14.35
2023-02-11T12:06:47.656Z,13.98
2023-02-11T12:08:12.973Z,13.70
2023-02-11T12:09:19.928Z,14.23
2023-02-11T12:10:47.355Z,14.35
2023-02-11T12:12:01.455Z,13.73
2023-02-11T12:13:44.800Z,13.55
2023-02-11T12:14:53.332Z,12.93
2023-02-11T12:16:10.076Z,13.95
2023-02-11T12:17:44.333Z,13.27
2023-02-11T12:19:12.129Z,14.38
2023-02-11T12:20:39.894Z,13.75
2023-02-11T12:21:47.949Z,14.18
2023-02-11T12:22:56.475Z,12.95
2023-02-11T12:24:18.004Z,13.43
2023-02-11T12:26:53.342Z,12.80
2023-02-11T12:28:24.776Z,12.40
2023-02-11T12:29:45.657Z,13.25
2023-02-11T12:31:00.041Z,12.82
2023-02-11T12:32:33.801Z,12.43
2023-02-11T12:34:00.882Z,12.75
2023-02-11T12:35:17.584Z,13.05
2023-02-11T12:36:40.262Z,12.00
2023-02-11T12:38:05.420Z,12.75
2023-02-11T12:39:32.177Z,12.52
2023-02-11T12:40:52.864Z,12.40
2023-02-11T12:42:51.717Z,12.68
2023-02-11T12:43:54.316Z,12.15
2023-02-11T12:45:31.342Z,11.10
2023-02-11T12:46:43.279Z,12.52
2023-02-11T12:48:13.046Z,12.75
2023-02-11T12:49:33.656Z,12.35
2023-02-11T12:50:46.148Z,12.20
2023-02-11T12:52:18.731Z,11.25
2023-02-11T12:53:49.798Z,11.30
2023-02-11T12:55:25.556Z,11.57
2023-02-11T12:56:38.656Z,12.07
2023-02-11T12:57:42.919Z,11.77
2023-02-11T12:58:48.322Z,11.60
2023-02-11T13:00:08.809Z,11.05
2023-02-11T13:01:22.477Z,10.88
2023-02-11T13:02:54.562Z,11.07
2023-02-11T13:04:00.022Z,10.63
2023-02-11T13:05:25.270Z,10.65
2023-02-11T13:06:40.203Z,10.90
2023-02-11T13:07:46.268Z,11.07
2023-02-11T13:09:00.642Z,10.85
2023-02-11T13:10:16.242Z,75.70
2023-02-11T13:11:32.945Z,77.60
2023-02-11T13:12:56.210Z,51.78
2023-02-11T13:14:06.067Z,43.28
2023-02-11T13:15:14.290Z,39.80
2023-02-11T13:16:37.053Z,40.50
2023-02-11T13:17:58.351Z,33.95
2023-02-11T13:19:14.441Z,31.40
2023-02-11T13:20:35.223Z,29.17
2023-02-11T13:21:51.212Z,27.67
2023-02-11T13:23:24.072Z,27.80
2023-02-11T13:24:44.288Z,26.15
2023-02-11T13:25:57.086Z,24.45
2023-02-11T13:27:37.860Z,22.77
2023-02-11T13:28:44.825Z,21.73
2023-02-11T13:29:50.340Z,21.05
2023-02-11T13:31:02.194Z,22.00
2023-02-11T13:32:14.462Z,21.70
2023-02-11T13:33:20.592Z,21.40
2023-02-11T13:34:58.902Z,20.60
2023-02-11T13:36:04.122Z,20.55
2023-02-11T13:37:22.054Z,18.40
2023-02-11T13:38:27.544Z,20.33
2023-02-11T13:39:30.044Z,20.45
2023-02-11T13:40:37.982Z,19.08
2023-02-11T13:41:42.289Z,18.60
2023-02-11T13:43:03.151Z,19.73
2023-02-11T13:44:11.272Z,19.70
2023-02-11T13:45:42.750Z,18.13
2023-02-11T13:47:06.604Z,19.83
2023-02-11T13:48:24.480Z,18.95
2023-02-11T13:49:36.905Z,17.92
2023-02-11T13:50:46.801Z,18.02
2023-02-11T13:51:49.679Z,18.05
2023-02-11T13:53:02.243Z,17.80
2023-02-11T13:54:07.397Z,18.55
2023-02-11T13:55:22.942Z,18.05
2023-02-11T13:56:30.793Z,19.38
2023-02-11T13:57:36.085Z,17.58
2023-02-11T13:58:48.405Z,18.27
2023-02-11T13:59:59.618Z,17.33
2023-02-11T14:01:02.162Z,17.17
2023-02-11T14:02:43.323Z,18.38
2023-02-11T14:04:37.778Z,16.40
2023-02-11T14:06:27.560Z,17.52
2023-02-11T14:07:51.543Z,17.65
2023-02-11T14:09:28.917Z,17.63
2023-02-11T14:10:43.287Z,17.42
2023-02-11T14:11:51.142Z,17.67
2023-02-11T14:13:25.790Z,17.90
2023-02-11T14:14:31.322Z,18.25
2023-02-11T14:15:39.544Z,24.10
2023-02-11T14:17:07.677Z,35.95
2023-02-11T14:18:43.974Z,73.63
2023-02-11T14:19:48.014Z,48.45
2023-02-11T14:20:51.239Z,55.83
2023-02-11T14:22:02.212Z,47.83
2023-02-11T14:23:05.916Z,46.67
2023-02-11T14:24:14.360Z,44.33
2023-02-11T14:25:22.948Z,37.85
2023-02-11T14:27:03.937Z,36.30
2023-02-11T14:28:22.552Z,32.85
2023-02-11T14:29:48.415Z,30.88
2023-02-11T14:31:05.636Z,30.10
2023-02-11T14:32:26.121Z,31.40
2023-02-11T14:33:40.526Z,29.58
2023-02-11T14:34:57.393Z,29.02
2023-02-11T14:36:29.443Z,29.33
2023-02-11T14:37:37.258Z,28.00
2023-02-11T14:39:01.284Z,28.58
2023-02-11T14:40:03.520Z,27.25
2023-02-11T14:41:25.593Z,25.17
2023-02-11T14:42:30.929Z,30.50
2023-02-11T14:43:45.198Z,31.60
2023-02-11T14:44:50.669Z,32.35
2023-02-11T14:45:57.674Z,28.95
2023-02-11T14:47:00.544Z,29.48
2023-02-11T14:48:16.377Z,28.65
2023-02-11T14:49:27.066Z,26.60
2023-02-11T14:50:41.574Z,25.95
2023-02-11T14:51:44.315Z,27.60
2023-02-11T14:52:47.344Z,27.27